Hauptseite
METAR-TAF:

METAR-TAF

Flughäfen :

Toussus-le-Noble, Frankreich

Flugplatz Toussus-le-Noble

Breite: 48-46N, Länge: 002-06E, Höhe: 164 m

Beobachtung

Neuester Wetterbericht von vor 23 Minuten, um 05:30 UTC
Wind 8 kt aus West/Südwest
Temperatur 6°C
Luftfeuchtigkeit 93%
Luftdruck 1020 hPa
Sichtweite 10 km oder mehr
keine Wolken unter 1500 m und keine Kumulonimbus oder Gewitterwolken

METAR: LFPN 260530Z AUTO 25008KT CAVOK 06/05 Q1020 NOSIG

Zeit: 07:53 (05:53 UTC)

Prognose

Neuester Wetterbericht von vor 53 Minuten, um 05:00 UTC
Gültige Prognose vom 26 um 06 UTC bis 26 um 15 UTC
Wind 8 kt aus West/Südwest
Sichtweite 10 km oder mehr
Leicht bewölkt in der Höhe von 2500 ft

TAF: LFPN 260500Z 2606/2615 25008KT 9999 FEW025

Wetterbeobachtungen und Prognosen von mehr als 4000 Flughäfen (METAR und TAF Bericht).

Die verfügbaren Stationen werden durch gelbe und rote Markierungen auf der Karte dargestellt.

Führen Sie die Maus auf sie, um den Namen der Station zu sehen.

Darauf klicken, um die Beobachtung von Wetterbeobachtungen und Prognosen zu sehen.

Um die Karte zu ändern : klicken Sie auf den grünen Tasten mit einem schwarzen Kreuz Zum Vergrößern, auf den grünen Button mit einem Gedankenstrich zu verkleinern, oder auf die grünen Pfeile für benachbarte Karten.


METAR-TAF: